createdAt,value
2018-05-03T00:00:15.676Z,15.7
2018-05-03T00:01:15.957Z,15.7
2018-05-03T00:02:15.972Z,15.55
2018-05-03T00:03:15.994Z,15.59
2018-05-03T00:04:16.001Z,15.76
2018-05-03T00:05:16.028Z,15.67
2018-05-03T00:06:16.249Z,15.65
2018-05-03T00:07:16.071Z,15.64
2018-05-03T00:08:16.093Z,15.65
2018-05-03T00:09:16.108Z,15.65
2018-05-03T00:10:16.127Z,15.64
2018-05-03T00:11:16.151Z,15.64
2018-05-03T00:12:16.080Z,15.57
2018-05-03T00:13:15.955Z,15.55
2018-05-03T00:14:16.220Z,15.49
2018-05-03T00:15:15.989Z,15.55
2018-05-03T00:16:16.269Z,15.52
2018-05-03T00:17:16.030Z,15.4
2018-05-03T00:18:16.421Z,15.39
2018-05-03T00:19:16.072Z,15.36
2018-05-03T00:20:15.839Z,15.39
2018-05-03T00:21:16.368Z,15.18
2018-05-03T00:22:16.231Z,15.21
2018-05-03T00:23:16.433Z,15.11
2018-05-03T00:24:16.425Z,15.24
2018-05-03T00:25:16.197Z,15.29
2018-05-03T00:26:15.965Z,15.24
2018-05-03T00:27:16.547Z,15.21
2018-05-03T00:28:16.509Z,15.18
2018-05-03T00:29:16.533Z,15
2018-05-03T00:30:16.557Z,15.07
2018-05-03T00:31:16.577Z,15
2018-05-03T00:32:16.339Z,14.97
2018-05-03T00:33:16.107Z,14.85
2018-05-03T00:34:16.125Z,14.91
2018-05-03T00:35:16.411Z,15.06
2018-05-03T00:36:16.430Z,15.04
2018-05-03T00:37:16.752Z,15.14
2018-05-03T00:38:16.719Z,15.25
2018-05-03T00:39:16.743Z,15.21
2018-05-03T00:40:16.747Z,15.18
2018-05-03T00:41:16.518Z,15.07
2018-05-03T00:42:16.793Z,15.06
2018-05-03T00:43:16.817Z,14.94
2018-05-03T00:44:16.593Z,14.91
2018-05-03T00:45:16.356Z,15.04
2018-05-03T00:46:16.882Z,14.89
2018-05-03T00:47:16.902Z,14.99
2018-05-03T00:48:16.928Z,14.92
2018-05-03T00:49:16.955Z,15
2018-05-03T00:50:16.970Z,15.14
2018-05-03T00:51:16.980Z,15.15
2018-05-03T00:52:16.794Z,15.27
2018-05-03T00:53:17.046Z,15.25
2018-05-03T00:54:17.039Z,15.24
2018-05-03T00:55:17.062Z,15.14
2018-05-03T00:56:16.830Z,15.14
2018-05-03T00:57:17.115Z,14.99
2018-05-03T00:58:17.125Z,14.88
2018-05-03T00:59:16.893Z,14.85
2018-05-03T01:00:16.911Z,14.91
2018-05-03T01:01:17.200Z,14.92
2018-05-03T01:02:17.219Z,14.92
2018-05-03T01:03:17.237Z,14.89
2018-05-03T01:04:16.998Z,14.89
2018-05-03T01:05:17.285Z,15.04
2018-05-03T01:06:17.312Z,15.03
2018-05-03T01:07:17.213Z,15.11
2018-05-03T01:08:17.345Z,15.06
2018-05-03T01:09:17.358Z,15.06
2018-05-03T01:10:17.381Z,15.21
2018-05-03T01:11:17.402Z,15.11
2018-05-03T01:12:17.419Z,15.04
2018-05-03T01:13:17.195Z,15.04
2018-05-03T01:14:17.209Z,15.11
2018-05-03T01:15:17.233Z,15.11
2018-05-03T01:16:17.518Z,15.21
2018-05-03T01:17:17.272Z,15.17
2018-05-03T01:18:17.536Z,15.03
2018-05-03T01:19:17.560Z,14.97
2018-05-03T01:20:17.331Z,14.89
2018-05-03T01:21:17.612Z,14.91
2018-05-03T01:22:17.170Z,15.07
2018-05-03T01:23:17.392Z,15.04
2018-05-03T01:24:17.416Z,15.14
2018-05-03T01:25:17.693Z,15.06
2018-05-03T01:26:17.709Z,14.92
2018-05-03T01:27:17.733Z,14.89
2018-05-03T01:28:17.498Z,14.88
2018-05-03T01:29:17.765Z,14.86
2018-05-03T01:30:17.545Z,14.84
2018-05-03T01:31:17.552Z,14.85
2018-05-03T01:32:17.825Z,14.85
2018-05-03T01:33:17.857Z,14.77
2018-05-03T01:34:17.621Z,14.6
2018-05-03T01:35:17.901Z,14.78
2018-05-03T01:36:17.668Z,14.84
2018-05-03T01:37:18.105Z,14.85
2018-05-03T01:38:17.706Z,14.82
2018-05-03T01:39:17.719Z,14.91
2018-05-03T01:40:18.000Z,14.91
2018-05-03T01:41:17.768Z,14.78
2018-05-03T01:42:17.784Z,14.77
2018-05-03T01:43:18.061Z,14.62
2018-05-03T01:44:18.080Z,14.51
2018-05-03T01:45:18.097Z,14.6
2018-05-03T01:46:18.119Z,14.55
2018-05-03T01:47:18.188Z,14.48
2018-05-03T01:48:18.205Z,14.62
2018-05-03T01:49:17.932Z,14.53
2018-05-03T01:50:17.945Z,14.62
2018-05-03T01:51:18.253Z,14.5
2018-05-03T01:52:18.289Z,14.62
2018-05-03T01:53:18.264Z,14.63
2018-05-03T01:54:18.280Z,14.72
2018-05-03T01:55:18.304Z,14.81
2018-05-03T01:56:18.332Z,14.77
2018-05-03T01:57:18.342Z,14.77
2018-05-03T01:58:18.107Z,14.63
2018-05-03T01:59:18.385Z,14.63
2018-05-03T02:00:18.402Z,14.68
2018-05-03T02:01:18.425Z,14.6
2018-05-03T02:02:18.446Z,14.63
2018-05-03T02:03:18.210Z,14.7
2018-05-03T02:04:18.482Z,14.7
2018-05-03T02:05:18.254Z,14.65
2018-05-03T02:06:18.266Z,14.35
2018-05-03T02:07:18.603Z,14.33
2018-05-03T02:08:18.572Z,14.54
2018-05-03T02:09:18.584Z,14.33
2018-05-03T02:10:18.607Z,14.59
2018-05-03T02:11:18.638Z,14.59
2018-05-03T02:12:18.642Z,14.53
2018-05-03T02:13:18.414Z,14.53
2018-05-03T02:14:18.681Z,14.5
2018-05-03T02:15:18.714Z,14.53
2018-05-03T02:16:18.474Z,14.59
2018-05-03T02:17:18.750Z,14.58
2018-05-03T02:18:18.780Z,14.6
2018-05-03T02:19:18.536Z,14.63
2018-05-03T02:20:18.812Z,14.58
2018-05-03T02:21:18.571Z,14.51
2018-05-03T02:22:18.904Z,14.51
2018-05-03T02:23:18.870Z,14.55
2018-05-03T02:24:18.628Z,14.54
2018-05-03T02:25:18.905Z,14.55
2018-05-03T02:26:18.917Z,14.5
2018-05-03T02:27:18.950Z,14.33
2018-05-03T02:28:18.454Z,14.36
2018-05-03T02:29:18.724Z,14.36
2018-05-03T02:30:18.999Z,14.3
2018-05-03T02:31:19.018Z,14.37
2018-05-03T02:32:18.793Z,14.43
2018-05-03T02:33:19.056Z,14.36
2018-05-03T02:34:19.093Z,14.48
2018-05-03T02:35:18.857Z,14.6
2018-05-03T02:36:18.626Z,14.63
2018-05-03T02:37:18.958Z,14.72
2018-05-03T02:38:18.918Z,14.7
2018-05-03T02:39:19.199Z,14.78
2018-05-03T02:40:19.215Z,14.7
2018-05-03T02:41:19.239Z,14.79
2018-05-03T02:42:19.260Z,14.6
2018-05-03T02:43:19.280Z,14.63
2018-05-03T02:44:19.305Z,14.59
2018-05-03T02:45:19.062Z,14.53
2018-05-03T02:46:18.829Z,14.59
2018-05-03T02:47:19.357Z,14.5
2018-05-03T02:48:19.119Z,14.5
2018-05-03T02:49:19.404Z,14.72
2018-05-03T02:50:19.162Z,14.81
2018-05-03T02:51:19.443Z,14.81
2018-05-03T02:52:19.251Z,14.69
2018-05-03T02:53:19.469Z,14.65
2018-05-03T02:54:19.234Z,14.59
2018-05-03T02:55:19.258Z,14.62
2018-05-03T02:56:19.281Z,14.77
2018-05-03T02:57:19.612Z,14.78
2018-05-03T02:58:19.075Z,14.82
2018-05-03T02:59:19.590Z,14.73
2018-05-03T03:00:19.619Z,14.82
2018-05-03T03:01:19.636Z,14.78
2018-05-03T03:02:19.538Z,14.73
2018-05-03T03:03:19.437Z,14.78
2018-05-03T03:04:19.451Z,14.77
2018-05-03T03:05:19.723Z,14.82
2018-05-03T03:06:19.737Z,14.81
2018-05-03T03:07:19.604Z,14.82
2018-05-03T03:08:19.775Z,14.81
2018-05-03T03:09:19.539Z,14.86
2018-05-03T03:10:19.812Z,14.85
2018-05-03T03:11:19.820Z,14.84
2018-05-03T03:12:19.892Z,14.84
2018-05-03T03:13:19.862Z,14.63
2018-05-03T03:14:19.893Z,14.72
2018-05-03T03:15:19.679Z,14.82
2018-05-03T03:16:20.030Z,14.94
2018-05-03T03:17:19.969Z,14.91
2018-05-03T03:18:19.992Z,14.88
2018-05-03T03:19:20.012Z,14.84
2018-05-03T03:20:20.029Z,14.79
2018-05-03T03:21:20.040Z,14.86
2018-05-03T03:22:20.065Z,14.85
2018-05-03T03:23:20.077Z,14.88
2018-05-03T03:24:19.841Z,14.86
2018-05-03T03:25:20.122Z,14.69
2018-05-03T03:26:20.136Z,14.55
2018-05-03T03:27:19.960Z,14.72
2018-05-03T03:28:19.928Z,14.85
2018-05-03T03:29:20.210Z,14.92
2018-05-03T03:30:19.982Z,14.86
2018-05-03T03:31:20.265Z,14.79
2018-05-03T03:32:20.021Z,14.7
2018-05-03T03:33:20.034Z,14.66
2018-05-03T03:34:20.060Z,14.59
2018-05-03T03:35:20.084Z,14.6
2018-05-03T03:36:20.098Z,14.62
2018-05-03T03:37:20.380Z,14.53
2018-05-03T03:38:19.886Z,14.47
2018-05-03T03:39:20.414Z,14.6
2018-05-03T03:40:20.443Z,14.68
2018-05-03T03:41:20.458Z,14.58
2018-05-03T03:42:20.544Z,14.63
2018-05-03T03:43:20.244Z,14.55
2018-05-03T03:44:20.261Z,14.65
2018-05-03T03:45:20.286Z,14.63
2018-05-03T03:46:20.558Z,14.79
2018-05-03T03:47:20.596Z,14.54
2018-05-03T03:48:20.632Z,14.72
2018-05-03T03:49:20.109Z,14.63
2018-05-03T03:50:20.385Z,14.84
2018-05-03T03:51:20.403Z,14.59
2018-05-03T03:52:20.683Z,14.63
2018-05-03T03:53:20.783Z,14.7
2018-05-03T03:54:20.719Z,14.62
2018-05-03T03:55:20.755Z,14.45
2018-05-03T03:56:20.759Z,14.53
2018-05-03T03:57:20.848Z,14.48
2018-05-03T03:58:20.570Z,14.51
2018-05-03T03:59:20.829Z,14.53
2018-05-03T04:00:20.925Z,14.55
2018-05-03T04:01:20.861Z,14.5
2018-05-03T04:02:20.882Z,14.37
2018-05-03T04:03:20.901Z,14.37
2018-05-03T04:04:20.931Z,14.36
2018-05-03T04:05:20.944Z,14.36
2018-05-03T04:06:20.980Z,14.58
2018-05-03T04:07:20.715Z,14.47
2018-05-03T04:08:20.988Z,14.48
2018-05-03T04:09:21.008Z,14.62
2018-05-03T04:10:21.042Z,14.73
2018-05-03T04:11:21.044Z,14.82
2018-05-03T04:12:20.817Z,14.94
2018-05-03T04:13:20.841Z,14.88
2018-05-03T04:14:21.125Z,14.96
2018-05-03T04:15:20.904Z,14.81
2018-05-03T04:16:20.912Z,14.79
2018-05-03T04:17:20.920Z,14.79
2018-05-03T04:18:21.194Z,14.65
2018-05-03T04:19:21.207Z,14.77
2018-05-03T04:20:21.234Z,14.65
2018-05-03T04:21:21.267Z,14.66
2018-05-03T04:22:21.239Z,14.73
2018-05-03T04:23:20.801Z,14.6
2018-05-03T04:24:21.328Z,14.62
2018-05-03T04:25:21.104Z,14.7
2018-05-03T04:26:21.374Z,14.84
2018-05-03T04:27:21.383Z,14.86
2018-05-03T04:28:21.154Z,14.82
2018-05-03T04:29:21.175Z,14.81
2018-05-03T04:30:21.457Z,14.86
2018-05-03T04:31:21.234Z,14.86
2018-05-03T04:32:21.499Z,14.81
2018-05-03T04:33:21.269Z,14.73
2018-05-03T04:34:21.280Z,14.7
2018-05-03T04:35:21.309Z,14.58
2018-05-03T04:36:21.574Z,14.59
2018-05-03T04:37:21.600Z,14.7
2018-05-03T04:38:21.620Z,14.62
2018-05-03T04:39:21.380Z,14.63
2018-05-03T04:40:21.662Z,14.66
2018-05-03T04:41:21.696Z,14.73
2018-05-03T04:42:21.705Z,14.59
2018-05-03T04:43:21.719Z,14.62
2018-05-03T04:44:21.738Z,14.72
2018-05-03T04:45:21.503Z,14.77
2018-05-03T04:46:21.784Z,14.78
2018-05-03T04:47:21.309Z,14.88
2018-05-03T04:48:21.573Z,14.91
2018-05-03T04:49:21.579Z,14.91
2018-05-03T04:50:21.609Z,14.94
2018-05-03T04:51:21.977Z,14.82
2018-05-03T04:52:21.642Z,14.66
2018-05-03T04:53:21.924Z,14.51
2018-05-03T04:54:22.101Z,14.44
2018-05-03T04:55:21.964Z,14.4
2018-05-03T04:56:21.740Z,14.5
2018-05-03T04:57:22.000Z,14.6
2018-05-03T04:58:22.026Z,14.54
2018-05-03T04:59:22.043Z,14.53
2018-05-03T05:00:22.065Z,14.7
2018-05-03T05:01:21.827Z,14.73
2018-05-03T05:02:22.110Z,14.85
2018-05-03T05:03:22.123Z,14.89
2018-05-03T05:04:22.139Z,14.92
2018-05-03T05:05:22.160Z,15.06
2018-05-03T05:06:22.190Z,15.02
2018-05-03T05:07:22.203Z,14.91
2018-05-03T05:08:22.226Z,14.79
2018-05-03T05:09:21.989Z,14.77
2018-05-03T05:10:22.264Z,14.55
2018-05-03T05:11:22.280Z,14.63
2018-05-03T05:12:22.312Z,14.62
2018-05-03T05:13:22.097Z,14.7
2018-05-03T05:14:22.342Z,14.69
2018-05-03T05:15:22.378Z,14.6
2018-05-03T05:16:22.391Z,14.72
2018-05-03T05:17:22.410Z,14.7
2018-05-03T05:18:22.473Z,14.79
2018-05-03T05:19:22.443Z,14.69
2018-05-03T05:20:22.472Z,14.88
2018-05-03T05:21:22.562Z,14.86
2018-05-03T05:22:22.504Z,14.91
2018-05-03T05:23:22.530Z,14.89
2018-05-03T05:24:22.051Z,15.02
2018-05-03T05:25:22.567Z,15.06
2018-05-03T05:26:22.586Z,15
2018-05-03T05:27:22.616Z,15.02
2018-05-03T05:28:22.626Z,14.85
2018-05-03T05:29:22.647Z,14.91
2018-05-03T05:30:22.666Z,15.11
2018-05-03T05:31:22.700Z,15.25
2018-05-03T05:32:22.730Z,15.33
2018-05-03T05:33:22.744Z,15.29
2018-05-03T05:34:22.765Z,15.06
2018-05-03T05:35:22.582Z,14.86
2018-05-03T05:36:22.850Z,14.86
2018-05-03T05:37:22.316Z,14.92
2018-05-03T05:38:22.592Z,14.99
2018-05-03T05:39:22.618Z,15.02
2018-05-03T05:40:22.642Z,15.03
2018-05-03T05:41:22.911Z,15.03
2018-05-03T05:42:22.677Z,15.15
2018-05-03T05:43:22.970Z,15.22
2018-05-03T05:44:23.240Z,15.24
2018-05-03T05:45:23.005Z,15.4
2018-05-03T05:46:23.031Z,15.42
2018-05-03T05:47:23.047Z,15.39
2018-05-03T05:48:22.567Z,15.36
2018-05-03T05:49:23.055Z,15.52
2018-05-03T05:50:22.831Z,15.42
2018-05-03T05:51:23.038Z,15.42
2018-05-03T05:52:23.116Z,15.39
2018-05-03T05:53:23.205Z,15.51
2018-05-03T05:54:22.926Z,15.42
2018-05-03T05:55:22.945Z,15.59
2018-05-03T05:56:22.966Z,15.8
2018-05-03T05:57:23.243Z,15.91
2018-05-03T05:58:23.265Z,15.97
2018-05-03T05:59:23.017Z,15.95
2018-05-03T06:00:23.042Z,16
2018-05-03T06:01:23.065Z,16.13
2018-05-03T06:02:23.339Z,15.9
2018-05-03T06:03:23.104Z,15.83
2018-05-03T06:04:23.245Z,16.1
2018-05-03T06:05:23.406Z,15.97
2018-05-03T06:06:23.427Z,15.84
2018-05-03T06:07:23.442Z,15.82
2018-05-03T06:08:23.473Z,15.82
2018-05-03T06:09:23.231Z,15.84
2018-05-03T06:10:23.621Z,15.72
2018-05-03T06:11:23.277Z,15.67
2018-05-03T06:12:23.887Z,15.54
2018-05-03T06:13:23.319Z,15.57
2018-05-03T06:14:23.591Z,15.58
2018-05-03T06:15:23.618Z,15.44
2018-05-03T06:16:23.645Z,15.61
2018-05-03T06:17:23.405Z,15.7
2018-05-03T06:18:23.436Z,15.68
2018-05-03T06:19:23.461Z,15.57
2018-05-03T06:20:23.237Z,15.46
2018-05-03T06:21:23.502Z,15.47
2018-05-03T06:22:23.782Z,15.52
2018-05-03T06:23:23.796Z,15.43
2018-05-03T06:24:23.823Z,15.61
2018-05-03T06:25:23.847Z,15.65
2018-05-03T06:26:23.868Z,15.76
2018-05-03T06:27:23.629Z,15.8
2018-05-03T06:28:23.908Z,15.57
2018-05-03T06:29:23.930Z,15.54
2018-05-03T06:30:23.949Z,15.55
2018-05-03T06:31:23.720Z,15.73
2018-05-03T06:32:23.989Z,15.75
2018-05-03T06:33:24.014Z,15.9
2018-05-03T06:34:23.781Z,15.98
2018-05-03T06:35:23.807Z,15.86
2018-05-03T06:36:24.066Z,15.94
2018-05-03T06:37:23.596Z,16
2018-05-03T06:38:24.106Z,16.1
2018-05-03T06:39:24.127Z,16.05
2018-05-03T06:40:23.652Z,16.1
2018-05-03T06:41:24.182Z,16.13
2018-05-03T06:42:24.212Z,16.28
2018-05-03T06:43:24.240Z,16.38
2018-05-03T06:44:24.248Z,16.21
2018-05-03T06:45:24.089Z,16.08
2018-05-03T06:46:24.291Z,16.12
2018-05-03T06:47:24.308Z,16.33
2018-05-03T06:48:24.373Z,16.41
2018-05-03T06:49:24.347Z,16.5
2018-05-03T06:50:24.115Z,16.51
2018-05-03T06:51:24.461Z,16.54
2018-05-03T06:52:24.426Z,16.68
2018-05-03T06:53:24.190Z,16.75
2018-05-03T06:54:24.477Z,16.6
2018-05-03T06:55:24.488Z,16.71
2018-05-03T06:56:24.253Z,16.76
2018-05-03T06:57:24.533Z,16.83
2018-05-03T06:58:24.553Z,16.87
2018-05-03T06:59:24.575Z,16.96
2018-05-03T07:00:24.343Z,16.94
2018-05-03T07:01:24.620Z,17.09
2018-05-03T07:02:24.639Z,17.01
2018-05-03T07:03:24.459Z,16.66
2018-05-03T07:04:25.160Z,16.74
2018-05-03T07:05:24.442Z,16.75
2018-05-03T07:06:24.732Z,16.74
2018-05-03T07:07:24.500Z,16.76
2018-05-03T07:08:24.774Z,16.79
2018-05-03T07:09:24.798Z,16.93
2018-05-03T07:10:24.819Z,16.76
2018-05-03T07:11:24.837Z,16.72
2018-05-03T07:12:24.868Z,16.76
2018-05-03T07:13:24.641Z,16.93
2018-05-03T07:14:24.661Z,16.69
2018-05-03T07:15:24.928Z,16.91
2018-05-03T07:16:25.241Z,17.08
2018-05-03T07:17:24.722Z,17.29
2018-05-03T07:18:25.196Z,17.49
2018-05-03T07:19:24.514Z,17.42
2018-05-03T07:20:25.047Z,17.27
2018-05-03T07:21:24.812Z,17.33
2018-05-03T07:22:24.835Z,17.54
2018-05-03T07:23:25.111Z,17.42
2018-05-03T07:24:25.133Z,17.57
2018-05-03T07:25:24.647Z,17.67
2018-05-03T07:26:25.176Z,17.71
2018-05-03T07:27:25.207Z,17.74
2018-05-03T07:28:25.325Z,17.94
2018-05-03T07:29:25.105Z,18.1
2018-05-03T07:30:25.007Z,18.29
2018-05-03T07:31:25.287Z,18.1
2018-05-03T07:32:25.319Z,17.68
2018-05-03T07:33:25.390Z,17.67
2018-05-03T07:34:25.357Z,17.7
2018-05-03T07:35:25.378Z,17.85
2018-05-03T07:36:25.402Z,17.87
2018-05-03T07:37:25.524Z,17.94
2018-05-03T07:38:24.938Z,17.98
2018-05-03T07:39:25.513Z,18.07
2018-05-03T07:40:25.562Z,17.97
2018-05-03T07:41:25.557Z,18.07
2018-05-03T07:42:25.558Z,18.26
2018-05-03T07:43:25.310Z,18.55
2018-05-03T07:44:25.583Z,18.55
2018-05-03T07:45:25.361Z,18.75
2018-05-03T07:46:25.442Z,18.93
2018-05-03T07:47:25.410Z,19.18
2018-05-03T07:48:25.826Z,19.24
2018-05-03T07:49:25.712Z,19.04
2018-05-03T07:50:25.732Z,18.9
2018-05-03T07:51:25.748Z,18.95
2018-05-03T07:52:25.808Z,18.53
2018-05-03T07:53:25.537Z,18.58
2018-05-03T07:54:25.560Z,18.34
2018-05-03T07:55:25.842Z,18.26
2018-05-03T07:56:25.615Z,18.5
2018-05-03T07:57:25.898Z,18.53
2018-05-03T07:58:25.938Z,18.68
2018-05-03T07:59:25.690Z,18.81
2018-05-03T08:00:25.968Z,18.96
2018-05-03T08:01:25.994Z,19.09
2018-05-03T08:02:26.012Z,19.18
2018-05-03T08:03:26.084Z,19.07
2018-05-03T08:04:26.059Z,19.02
2018-05-03T08:05:26.086Z,19.14
2018-05-03T08:06:26.110Z,19.22
2018-05-03T08:07:26.156Z,19.3
2018-05-03T08:08:25.906Z,19.36
2018-05-03T08:09:26.205Z,19.18
2018-05-03T08:10:26.209Z,18.95
2018-05-03T08:11:25.966Z,19.14
2018-05-03T08:12:25.990Z,19.37
2018-05-03T08:13:26.266Z,19.33
2018-05-03T08:14:26.292Z,19.39
2018-05-03T08:15:26.401Z,19.41
2018-05-03T08:16:25.835Z,19.44
2018-05-03T08:17:26.363Z,19.4
2018-05-03T08:18:26.432Z,19.15
2018-05-03T08:19:26.417Z,19.29
2018-05-03T08:20:25.929Z,19.58
2018-05-03T08:21:26.204Z,19.94
2018-05-03T08:22:26.674Z,19.89
2018-05-03T08:23:26.558Z,20.09
2018-05-03T08:24:26.270Z,20.24
2018-05-03T08:25:26.314Z,20.21
2018-05-03T08:26:26.573Z,20.21
2018-05-03T08:27:26.600Z,20.37
2018-05-03T08:28:26.404Z,20.41
2018-05-03T08:29:26.406Z,20.66
2018-05-03T08:30:26.687Z,20.78
2018-05-03T08:31:26.714Z,21.02
2018-05-03T08:32:26.744Z,20.84
2018-05-03T08:33:26.512Z,20.85
2018-05-03T08:34:26.532Z,20.75
2018-05-03T08:35:26.817Z,20.96
2018-05-03T08:36:26.835Z,21
2018-05-03T08:37:26.603Z,21.3
2018-05-03T08:38:26.680Z,21.25
2018-05-03T08:39:26.659Z,21.06
2018-05-03T08:40:26.944Z,20.93
2018-05-03T08:41:27.026Z,20.81
2018-05-03T08:42:26.738Z,20.97
2018-05-03T08:43:26.758Z,21.18
2018-05-03T08:44:27.038Z,21.35
2018-05-03T08:45:27.066Z,21.5
2018-05-03T08:46:27.101Z,21.33
2018-05-03T08:47:27.114Z,20.99
2018-05-03T08:48:27.133Z,20.7
2018-05-03T08:49:26.943Z,20.78
2018-05-03T08:50:27.197Z,20.74
2018-05-03T08:51:27.221Z,20.96
2018-05-03T08:52:27.239Z,21.14
2018-05-03T08:53:27.059Z,21.35
2018-05-03T08:54:27.346Z,21.3
2018-05-03T08:55:27.414Z,21.45
2018-05-03T08:56:27.355Z,21.57
2018-05-03T08:57:27.364Z,21.66
2018-05-03T08:58:27.186Z,21.8
2018-05-03T08:59:27.429Z,21.77
2018-05-03T09:00:27.444Z,21.77
2018-05-03T09:01:27.714Z,21.69
2018-05-03T09:02:27.497Z,21.79
2018-05-03T09:03:27.521Z,21.82
2018-05-03T09:04:27.544Z,22
2018-05-03T09:05:27.576Z,22.1
2018-05-03T09:06:27.599Z,22.14
2018-05-03T09:07:27.367Z,22.32
2018-05-03T09:08:27.541Z,22.43
2018-05-03T09:09:27.673Z,22.07
2018-05-03T09:10:27.449Z,22.06
2018-05-03T09:11:27.471Z,21.69
2018-05-03T09:12:27.776Z,21.55
2018-05-03T09:13:27.789Z,21.5
2018-05-03T09:14:27.827Z,21.3
2018-05-03T09:15:27.836Z,21.02
2018-05-03T09:16:27.860Z,21
2018-05-03T09:17:27.634Z,21.36
2018-05-03T09:18:27.934Z,21.67
2018-05-03T09:19:27.681Z,22.1
2018-05-03T09:20:27.964Z,22.43
2018-05-03T09:21:27.992Z,22.59
2018-05-03T09:22:28.291Z,22.75
2018-05-03T09:23:27.838Z,22.84
2018-05-03T09:24:27.828Z,22.98
2018-05-03T09:25:28.158Z,23.08
2018-05-03T09:26:28.152Z,23.13
2018-05-03T09:27:28.147Z,23.25
2018-05-03T09:28:28.174Z,23.25
2018-05-03T09:29:27.946Z,22.99
2018-05-03T09:30:28.226Z,22.93
2018-05-03T09:31:28.017Z,23.05
2018-05-03T09:32:28.279Z,22.75
2018-05-03T09:33:28.049Z,22.85
2018-05-03T09:34:28.077Z,22.8
2018-05-03T09:35:28.104Z,23.05
2018-05-03T09:36:28.131Z,22.91
2018-05-03T09:37:28.160Z,22.83
2018-05-03T09:38:28.484Z,23.08
2018-05-03T09:39:28.208Z,23.17
2018-05-03T09:40:28.504Z,23.46
2018-05-03T09:41:28.520Z,23.55
2018-05-03T09:42:28.290Z,22.33
2018-05-03T09:43:28.570Z,22.3
2018-05-03T09:44:28.742Z,22.5
2018-05-03T09:45:28.625Z,22.63
2018-05-03T09:46:28.397Z,22.94
2018-05-03T09:47:28.426Z,22.88
2018-05-03T09:48:28.196Z,22.7
2018-05-03T09:49:28.739Z,22.44
2018-05-03T09:50:28.508Z,22.22
2018-05-03T09:51:28.787Z,21.98
2018-05-03T09:52:28.894Z,22.14
2018-05-03T09:53:28.638Z,22.28
2018-05-03T09:54:28.872Z,22.44
2018-05-03T09:55:28.899Z,22.5
2018-05-03T09:56:28.926Z,22.57
2018-05-03T09:57:28.786Z,22.81
2018-05-03T09:58:28.978Z,22.98
2018-05-03T09:59:28.834Z,23.18
2018-05-03T10:00:28.791Z,23.36
2018-05-03T10:01:29.052Z,23.54
2018-05-03T10:02:29.080Z,23.87
2018-05-03T10:03:29.120Z,23.99
2018-05-03T10:04:28.881Z,24.26
2018-05-03T10:05:29.160Z,24.3
2018-05-03T10:06:29.190Z,24.43
2018-05-03T10:07:28.956Z,24.43
2018-05-03T10:08:29.034Z,24.45
2018-05-03T10:09:29.016Z,24.51
2018-05-03T10:10:29.296Z,24.58
2018-05-03T10:11:29.327Z,24.8
2018-05-03T10:12:29.345Z,24.99
2018-05-03T10:13:29.117Z,24.98
2018-05-03T10:14:29.197Z,25.26
2018-05-03T10:15:29.169Z,25.44
2018-05-03T10:16:29.221Z,25.69
2018-05-03T10:17:29.494Z,26.05
2018-05-03T10:18:29.269Z,26.48
2018-05-03T10:19:29.289Z,26.78
2018-05-03T10:20:29.605Z,26.95
2018-05-03T10:21:29.612Z,27.26
2018-05-03T10:22:29.635Z,27.27
2018-05-03T10:23:29.714Z,27.2
2018-05-03T10:24:29.704Z,27.49
2018-05-03T10:25:29.461Z,27.71
2018-05-03T10:26:29.498Z,27.89
2018-05-03T10:27:29.796Z,27.87
2018-05-03T10:28:29.802Z,28.12
2018-05-03T10:29:29.587Z,28.26
2018-05-03T10:30:29.870Z,28.54
2018-05-03T10:31:29.651Z,28.39
2018-05-03T10:32:29.428Z,28.49
2018-05-03T10:33:29.709Z,28.72
2018-05-03T10:34:30.000Z,28.98
2018-05-03T10:35:29.517Z,28.93
2018-05-03T10:36:30.051Z,28.76
2018-05-03T10:37:29.835Z,28.42
2018-05-03T10:38:29.916Z,28.04
2018-05-03T10:39:30.149Z,28.11
2018-05-03T10:40:30.184Z,28.44
2018-05-03T10:41:30.215Z,28.63
2018-05-03T10:42:29.987Z,28.84
2018-05-03T10:43:30.020Z,29.16
2018-05-03T10:44:30.052Z,29.44
2018-05-03T10:45:30.325Z,29.6
2018-05-03T10:46:30.105Z,29.73
2018-05-03T10:47:30.133Z,29.69
2018-05-03T10:48:30.422Z,30.09
2018-05-03T10:49:30.203Z,30.02
2018-05-03T10:50:30.236Z,29.91
2018-05-03T10:51:30.528Z,29.71
2018-05-03T10:52:30.558Z,29.54
2018-05-03T10:53:30.076Z,29.54
2018-05-03T10:54:30.615Z,30.12
2018-05-03T10:55:30.645Z,30.57
2018-05-03T10:56:30.419Z,30.72
2018-05-03T10:57:30.833Z,30.97
2018-05-03T10:58:30.485Z,31.28
2018-05-03T10:59:30.776Z,31.37
2018-05-03T11:00:30.817Z,31.51
2018-05-03T11:01:30.582Z,30.84
2018-05-03T11:02:30.858Z,30.34
2018-05-03T11:03:30.653Z,30
2018-05-03T11:04:31.672Z,29.78
2018-05-03T11:05:31.581Z,29.32
2018-05-03T11:06:30.993Z,29.27
2018-05-03T11:07:30.773Z,28.79
2018-05-03T11:08:31.062Z,28.51
2018-05-03T11:09:30.892Z,28.2
2018-05-03T11:10:31.127Z,27.68
2018-05-03T11:11:30.928Z,27.73
2018-05-03T11:12:31.193Z,28.01
2018-05-03T11:13:31.216Z,28.37
2018-05-03T11:14:31.243Z,28.82
2018-05-03T11:15:31.022Z,29.13
2018-05-03T11:16:30.792Z,29.31
2018-05-03T11:17:30.833Z,29.61
2018-05-03T11:18:30.854Z,30
2018-05-03T11:19:30.884Z,29.5
2018-05-03T11:20:31.164Z,29.72
2018-05-03T11:21:31.201Z,30.27
2018-05-03T11:22:31.233Z,30.9
2018-05-03T11:23:31.007Z,31.24
2018-05-03T11:24:31.109Z,30.99
2018-05-03T11:25:31.340Z,31.1
2018-05-03T11:26:31.364Z,30.88
2018-05-03T11:27:31.391Z,30.55
2018-05-03T11:28:31.674Z,30.21
2018-05-03T11:29:31.455Z,29.97
2018-05-03T11:30:31.740Z,29.71
2018-05-03T11:31:31.726Z,29.68
2018-05-03T11:32:31.550Z,29.93
2018-05-03T11:33:31.837Z,29.98
2018-05-03T11:34:31.632Z,29.94
2018-05-03T11:35:31.897Z,30.08
2018-05-03T11:36:31.937Z,29.91
2018-05-03T11:37:31.452Z,30.05
2018-05-03T11:38:31.993Z,30.13
2018-05-03T11:39:32.070Z,29.98
2018-05-03T11:40:32.066Z,30.12
2018-05-03T11:41:31.829Z,29.94
2018-05-03T11:42:31.865Z,30.1
2018-05-03T11:43:32.145Z,30.25
2018-05-03T11:44:31.922Z,30.68
2018-05-03T11:45:32.207Z,30.72
2018-05-03T11:46:31.984Z,30.44
2018-05-03T11:47:32.271Z,30.44
2018-05-03T11:48:32.361Z,30.77
2018-05-03T11:49:32.333Z,30.69
2018-05-03T11:50:32.108Z,30.84
2018-05-03T11:51:32.145Z,31.03
2018-05-03T11:52:32.172Z,31.17
2018-05-03T11:53:32.464Z,31.14
2018-05-03T11:54:32.538Z,31.02
2018-05-03T11:55:32.519Z,30.57
2018-05-03T11:56:32.296Z,30.4
2018-05-03T11:57:32.326Z,30.13
2018-05-03T11:58:32.606Z,29.95
2018-05-03T11:59:32.859Z,29.76
2018-05-03T12:00:32.668Z,29.71
2018-05-03T12:01:32.699Z,29.78
2018-05-03T12:02:32.907Z,29.72
2018-05-03T12:03:32.510Z,29.76
2018-05-03T12:04:32.846Z,29.81
2018-05-03T12:05:32.821Z,29.69
2018-05-03T12:06:32.861Z,29.42
2018-05-03T12:07:32.881Z,29.51
2018-05-03T12:08:32.924Z,29.53
2018-05-03T12:09:32.962Z,29.45
2018-05-03T12:10:32.976Z,29.19
2018-05-03T12:11:32.995Z,29.24
2018-05-03T12:12:33.028Z,29.08
2018-05-03T12:13:33.060Z,28.93
2018-05-03T12:14:33.089Z,28.86
2018-05-03T12:15:33.115Z,28.7
2018-05-03T12:16:33.157Z,28.69
2018-05-03T12:17:32.929Z,28.44
2018-05-03T12:18:33.209Z,28.12
2018-05-03T12:19:33.294Z,27.87
2018-05-03T12:20:33.016Z,27.82
2018-05-03T12:21:33.304Z,28.14
2018-05-03T12:22:33.330Z,28.26
2018-05-03T12:23:33.104Z,28.35
2018-05-03T12:24:33.646Z,28.15
2018-05-03T12:25:33.428Z,28.22
2018-05-03T12:26:33.189Z,28.12
2018-05-03T12:27:32.969Z,27.71
2018-05-03T12:28:33.510Z,27.49
2018-05-03T12:29:33.533Z,27.47
2018-05-03T12:30:33.755Z,27.26
2018-05-03T12:31:33.340Z,27.22
2018-05-03T12:32:33.619Z,27.17
2018-05-03T12:33:33.656Z,27.07
2018-05-03T12:34:33.726Z,27.15
2018-05-03T12:35:33.200Z,27.22
2018-05-03T12:36:33.475Z,27.25
2018-05-03T12:37:33.758Z,27.29
2018-05-03T12:38:33.795Z,27.22
2018-05-03T12:39:33.570Z,27.18
2018-05-03T12:40:33.848Z,27.14
2018-05-03T12:41:33.625Z,27.14
2018-05-03T12:42:33.392Z,27.18
2018-05-03T12:43:33.938Z,27.21
2018-05-03T12:44:33.960Z,27.22
2018-05-03T12:45:33.995Z,27.12
2018-05-03T12:46:33.768Z,27.17
2018-05-03T12:47:33.785Z,27.17
2018-05-03T12:48:33.824Z,27.18
2018-05-03T12:49:33.840Z,27.21
2018-05-03T12:50:33.879Z,27.08
2018-05-03T12:51:34.155Z,27.22
2018-05-03T12:52:33.930Z,27.37
2018-05-03T12:53:34.214Z,27.44
2018-05-03T12:54:34.250Z,27.58
2018-05-03T12:55:33.768Z,27.44
2018-05-03T12:56:34.304Z,27.29